createdAt,value
2018-05-13T00:00:15.121Z,7.23
2018-05-13T00:02:43.363Z,5.27
2018-05-13T00:05:10.830Z,6.67
2018-05-13T00:07:38.310Z,4.40
2018-05-13T00:10:05.780Z,6.57
2018-05-13T00:12:34.006Z,5.33
2018-05-13T00:15:01.524Z,6.83
2018-05-13T00:17:30.498Z,7.57
2018-05-13T00:19:57.964Z,7.07
2018-05-13T00:22:25.524Z,5.87
2018-05-13T00:24:52.982Z,4.83
2018-05-13T00:27:20.561Z,6.40
2018-05-13T00:29:48.027Z,6.73
2018-05-13T00:32:15.491Z,7.27
2018-05-13T00:34:43.748Z,7.87
2018-05-13T00:37:11.198Z,6.07
2018-05-13T00:39:38.660Z,6.50
2018-05-13T00:42:06.123Z,8.60
2018-05-13T00:44:33.583Z,8.60
2018-05-13T00:47:01.076Z,5.97
2018-05-13T00:49:28.631Z,6.80
2018-05-13T00:51:56.204Z,6.40
2018-05-13T00:54:35.630Z,7.37
2018-05-13T00:57:03.098Z,7.67
2018-05-13T00:59:30.566Z,5.20
2018-05-13T01:01:58.032Z,4.70
2018-05-13T01:04:25.497Z,5.83
2018-05-13T01:06:53.041Z,4.80
2018-05-13T01:09:20.626Z,5.60
2018-05-13T01:11:48.188Z,6.40
2018-05-13T01:14:15.730Z,6.70
2018-05-13T01:16:43.206Z,5.67
2018-05-13T01:19:10.663Z,4.23
2018-05-13T01:21:38.217Z,5.50
2018-05-13T01:24:05.685Z,5.30
2018-05-13T01:26:33.204Z,5.87
2018-05-13T01:29:00.659Z,4.93
2018-05-13T01:31:28.108Z,6.03
2018-05-13T01:33:56.343Z,5.53
2018-05-13T01:36:23.796Z,5.30
2018-05-13T01:38:51.251Z,5.13
2018-05-13T01:41:18.711Z,7.47
2018-05-13T01:43:46.195Z,5.70
2018-05-13T01:46:13.647Z,5.30
2018-05-13T01:48:41.218Z,5.80
2018-05-13T01:51:08.675Z,5.27
2018-05-13T01:53:36.148Z,5.53
2018-05-13T01:56:03.723Z,5.37
2018-05-13T01:58:31.195Z,5.50
2018-05-13T02:00:58.663Z,6.00
2018-05-13T02:03:26.925Z,5.47
2018-05-13T02:05:54.504Z,5.10
2018-05-13T02:08:22.766Z,5.20
2018-05-13T02:10:50.229Z,5.03
2018-05-13T02:13:18.869Z,5.30
2018-05-13T02:15:46.325Z,5.50
2018-05-13T02:18:13.775Z,5.27
2018-05-13T02:20:42.005Z,5.10
2018-05-13T02:23:09.451Z,5.23
2018-05-13T02:25:36.922Z,5.23
2018-05-13T02:28:04.405Z,5.57
2018-05-13T02:30:31.856Z,5.43
2018-05-13T02:32:59.317Z,5.33
2018-05-13T02:35:26.786Z,5.53
2018-05-13T02:37:54.249Z,5.60
2018-05-13T02:40:21.818Z,5.23
2018-05-13T02:42:49.283Z,5.60
2018-05-13T02:45:16.833Z,5.43
2018-05-13T02:47:44.287Z,6.63
2018-05-13T02:50:11.860Z,5.90
2018-05-13T02:52:39.325Z,5.97
2018-05-13T02:55:06.876Z,5.70
2018-05-13T02:57:34.453Z,5.70
2018-05-13T03:00:01.911Z,5.60
2018-05-13T03:02:29.478Z,5.90
2018-05-13T03:04:56.945Z,5.87
2018-05-13T03:07:24.400Z,5.87
2018-05-13T03:09:51.972Z,5.83
2018-05-13T03:12:19.430Z,5.27
2018-05-13T03:14:46.997Z,5.17
2018-05-13T03:17:14.490Z,5.70
2018-05-13T03:19:42.717Z,5.60
2018-05-13T03:22:10.201Z,5.57
2018-05-13T03:24:37.692Z,6.23
2018-05-13T03:27:05.913Z,5.83
2018-05-13T03:29:33.851Z,6.10
2018-05-13T03:32:02.193Z,5.93
2018-05-13T03:34:29.762Z,5.83
2018-05-13T03:36:57.214Z,5.50
2018-05-13T03:39:24.674Z,6.13
2018-05-13T03:41:53.322Z,6.10
2018-05-13T03:44:21.543Z,5.93
2018-05-13T03:46:48.996Z,6.00
2018-05-13T03:49:16.452Z,5.97
2018-05-13T03:51:43.933Z,6.60
2018-05-13T03:54:11.404Z,6.30
2018-05-13T03:56:38.973Z,5.53
2018-05-13T03:59:06.413Z,5.87
2018-05-13T04:01:33.864Z,6.93
2018-05-13T04:04:01.338Z,6.07
2018-05-13T04:06:28.802Z,6.30
2018-05-13T04:09:08.100Z,6.17
2018-05-13T04:11:47.636Z,5.43
2018-05-13T04:14:27.222Z,6.87
2018-05-13T04:16:54.676Z,6.23
2018-05-13T04:19:22.131Z,6.37
2018-05-13T04:21:49.708Z,6.30
2018-05-13T04:24:17.273Z,6.07
2018-05-13T04:26:44.839Z,6.17
2018-05-13T04:29:12.299Z,6.57
2018-05-13T04:31:39.756Z,6.60
2018-05-13T04:34:07.223Z,6.40
2018-05-13T04:36:34.663Z,6.40
2018-05-13T04:39:02.125Z,6.03
2018-05-13T04:41:29.599Z,6.27
2018-05-13T04:43:57.071Z,7.50
2018-05-13T04:46:24.519Z,7.17
2018-05-13T04:48:51.987Z,9.40
2018-05-13T04:51:20.036Z,9.33
2018-05-13T04:53:47.544Z,10.47
2018-05-13T04:56:15.085Z,7.40
2018-05-13T04:58:42.551Z,6.77
2018-05-13T05:01:10.007Z,9.50
2018-05-13T05:03:37.473Z,8.73
2018-05-13T05:06:05.049Z,8.20
2018-05-13T05:08:32.516Z,8.20
2018-05-13T05:10:59.978Z,8.00
2018-05-13T05:13:29.078Z,8.43
2018-05-13T05:15:57.357Z,9.20
2018-05-13T05:18:24.818Z,8.93
2018-05-13T05:20:52.278Z,8.57
2018-05-13T05:23:19.842Z,8.53
2018-05-13T05:25:47.330Z,8.07
2018-05-13T05:28:15.585Z,7.83
2018-05-13T05:30:43.856Z,7.83
2018-05-13T05:33:11.303Z,8.00
2018-05-13T05:35:38.821Z,7.63
2018-05-13T05:38:06.244Z,7.23
2018-05-13T05:40:33.816Z,7.17
2018-05-13T05:43:01.382Z,6.80
2018-05-13T05:45:28.932Z,7.00
2018-05-13T05:47:56.394Z,7.70
2018-05-13T05:50:23.969Z,6.43
2018-05-13T05:52:51.433Z,6.73
2018-05-13T05:55:18.894Z,6.27
2018-05-13T05:57:47.646Z,7.80
2018-05-13T06:00:15.103Z,6.47
2018-05-13T06:02:42.590Z,7.17
2018-05-13T06:05:10.055Z,6.83
2018-05-13T06:07:37.509Z,6.60
2018-05-13T06:10:05.005Z,6.50
2018-05-13T06:12:32.471Z,6.57
2018-05-13T06:15:00.711Z,6.70
2018-05-13T06:17:28.163Z,6.80
2018-05-13T06:19:55.643Z,6.47
2018-05-13T06:22:23.220Z,7.60
2018-05-13T06:24:50.791Z,6.77
2018-05-13T06:27:18.256Z,5.70
2018-05-13T06:29:45.712Z,6.27
2018-05-13T06:32:13.189Z,5.60
2018-05-13T06:34:40.643Z,6.17
2018-05-13T06:37:08.107Z,6.10
2018-05-13T06:39:36.337Z,6.33
2018-05-13T06:42:03.789Z,6.03
2018-05-13T06:44:31.250Z,5.97
2018-05-13T06:46:58.715Z,6.97
2018-05-13T06:49:26.227Z,6.33
2018-05-13T06:51:53.696Z,7.40
2018-05-13T06:54:21.950Z,7.60
2018-05-13T06:56:49.399Z,8.33
2018-05-13T06:59:16.870Z,7.70
2018-05-13T07:01:44.343Z,7.63
2018-05-13T07:04:13.611Z,7.60
2018-05-13T07:06:41.075Z,7.77
2018-05-13T07:09:08.541Z,7.87
2018-05-13T07:11:35.990Z,8.53
2018-05-13T07:14:03.453Z,8.03
2018-05-13T07:16:30.933Z,8.50
2018-05-13T07:18:58.425Z,8.57
2018-05-13T07:21:25.888Z,8.10
2018-05-13T07:23:53.456Z,7.53
2018-05-13T07:26:20.940Z,7.87
2018-05-13T07:28:49.179Z,8.13
2018-05-13T07:31:16.645Z,9.43
2018-05-13T07:33:44.271Z,7.97
2018-05-13T07:36:11.716Z,7.83
2018-05-13T07:38:40.052Z,7.50
2018-05-13T07:41:07.508Z,7.27
2018-05-13T07:43:35.056Z,8.37
2018-05-13T07:46:02.522Z,7.50
2018-05-13T07:48:29.971Z,7.13
2018-05-13T07:50:57.550Z,7.23
2018-05-13T07:53:26.462Z,6.97
2018-05-13T07:55:53.940Z,7.50
2018-05-13T07:58:21.399Z,7.23
2018-05-13T08:00:48.860Z,7.03
2018-05-13T08:03:16.319Z,7.47
2018-05-13T08:05:43.783Z,7.20
2018-05-13T08:08:11.349Z,7.33
2018-05-13T08:10:39.169Z,7.10
2018-05-13T08:13:06.635Z,7.47
2018-05-13T08:15:34.129Z,7.30
2018-05-13T08:18:01.707Z,6.87
2018-05-13T08:20:29.215Z,7.77
2018-05-13T08:22:56.725Z,8.00
2018-05-13T08:25:24.302Z,7.07
2018-05-13T08:27:51.759Z,7.10
2018-05-13T08:30:19.236Z,7.73
2018-05-13T08:32:46.684Z,8.17
2018-05-13T08:35:14.241Z,7.83
2018-05-13T08:37:41.709Z,7.73
2018-05-13T08:40:09.321Z,7.63
2018-05-13T08:42:36.770Z,10.20
2018-05-13T08:45:04.279Z,8.73
2018-05-13T08:47:31.844Z,8.93
2018-05-13T08:49:59.320Z,9.80
2018-05-13T08:52:26.812Z,9.03
2018-05-13T08:54:55.037Z,7.77
2018-05-13T08:57:22.511Z,7.40
2018-05-13T08:59:49.981Z,8.03
2018-05-13T09:02:17.548Z,8.50
2018-05-13T09:04:45.100Z,8.63
2018-05-13T09:07:12.574Z,9.57
2018-05-13T09:09:40.139Z,8.70
2018-05-13T09:12:07.689Z,9.60
2018-05-13T09:14:35.263Z,8.07
2018-05-13T09:17:02.831Z,7.77
2018-05-13T09:19:30.397Z,8.30
2018-05-13T09:21:57.862Z,8.17
2018-05-13T09:24:25.334Z,8.73
2018-05-13T09:26:52.798Z,8.90
2018-05-13T09:29:20.273Z,9.83
2018-05-13T09:31:48.533Z,8.93
2018-05-13T09:34:15.976Z,9.07
2018-05-13T09:36:43.554Z,8.37
2018-05-13T09:39:11.027Z,10.23
2018-05-13T09:41:38.503Z,10.90
2018-05-13T09:44:06.856Z,9.50
2018-05-13T09:46:34.412Z,8.33
2018-05-13T09:49:02.727Z,9.53
2018-05-13T09:51:31.085Z,9.60
2018-05-13T09:53:58.531Z,9.07
2018-05-13T09:56:26.006Z,10.93
2018-05-13T09:58:53.577Z,9.53
2018-05-13T10:01:21.028Z,9.03
2018-05-13T10:03:48.488Z,8.97
2018-05-13T10:06:16.053Z,9.00
2018-05-13T10:08:43.617Z,9.07
2018-05-13T10:11:11.089Z,8.80
2018-05-13T10:13:38.652Z,8.73
2018-05-13T10:16:06.125Z,9.20
2018-05-13T10:18:34.385Z,9.53
2018-05-13T10:21:02.613Z,9.63
2018-05-13T10:23:30.137Z,8.80
2018-05-13T10:25:57.700Z,8.83
2018-05-13T10:28:26.416Z,8.57
2018-05-13T10:30:54.759Z,7.70
2018-05-13T10:33:22.333Z,8.47
2018-05-13T10:35:49.883Z,7.87
2018-05-13T10:38:17.354Z,8.13
2018-05-13T10:40:44.811Z,9.13
2018-05-13T10:43:12.366Z,7.37
2018-05-13T10:45:39.844Z,7.97
2018-05-13T10:48:07.418Z,7.87
2018-05-13T10:50:34.885Z,7.30
2018-05-13T10:53:02.357Z,7.50
2018-05-13T10:55:30.607Z,7.73
2018-05-13T10:57:58.072Z,6.97
2018-05-13T11:00:25.624Z,7.17
2018-05-13T11:02:53.084Z,6.57
2018-05-13T11:05:20.546Z,5.87
2018-05-13T11:07:48.136Z,6.77
2018-05-13T11:10:17.113Z,6.60
2018-05-13T11:12:44.585Z,6.80
2018-05-13T11:15:12.039Z,7.43
2018-05-13T11:17:39.495Z,6.87
2018-05-13T11:20:07.051Z,6.67
2018-05-13T11:22:34.536Z,6.63
2018-05-13T11:25:02.012Z,6.23
2018-05-13T11:27:29.565Z,6.40
2018-05-13T11:29:57.121Z,6.90
2018-05-13T11:32:24.691Z,5.80
2018-05-13T11:34:52.143Z,6.67
2018-05-13T11:37:19.599Z,6.07
2018-05-13T11:39:47.133Z,7.47
2018-05-13T11:42:14.555Z,7.40
2018-05-13T11:44:42.034Z,6.80
2018-05-13T11:47:10.284Z,6.70
2018-05-13T11:49:37.765Z,5.77
2018-05-13T11:52:06.037Z,7.77
2018-05-13T11:54:33.580Z,7.63
2018-05-13T11:57:01.047Z,8.23
2018-05-13T11:59:28.512Z,8.00
2018-05-13T12:01:55.989Z,7.77
2018-05-13T12:04:24.246Z,7.03
2018-05-13T12:06:51.802Z,7.20
2018-05-13T12:09:19.277Z,7.60
2018-05-13T12:14:18.173Z,7.47
2018-05-13T12:16:45.658Z,7.03
2018-05-13T12:19:13.115Z,7.33
2018-05-13T12:21:40.604Z,6.27
2018-05-13T12:24:08.854Z,7.07
2018-05-13T12:26:36.324Z,6.63
2018-05-13T12:29:03.781Z,6.03
2018-05-13T12:31:31.237Z,6.53
2018-05-13T12:33:58.807Z,6.57
2018-05-13T12:36:26.269Z,6.33
2018-05-13T12:38:53.937Z,6.40
2018-05-13T12:41:22.903Z,6.97
2018-05-13T12:43:50.381Z,6.60
2018-05-13T12:46:19.411Z,7.07
2018-05-13T12:48:46.867Z,6.20
2018-05-13T12:51:14.320Z,6.60
2018-05-13T12:53:41.794Z,6.20
2018-05-13T12:56:09.272Z,6.03
2018-05-13T12:58:37.477Z,6.23
2018-05-13T13:01:04.934Z,5.57
2018-05-13T13:03:32.385Z,5.97
2018-05-13T13:05:59.843Z,5.30
2018-05-13T13:08:27.360Z,5.70
2018-05-13T13:10:54.805Z,5.37
2018-05-13T13:13:22.393Z,5.87
2018-05-13T13:15:49.940Z,5.90
2018-05-13T13:18:17.403Z,5.57
2018-05-13T13:20:44.865Z,5.17
2018-05-13T13:23:12.319Z,6.10
2018-05-13T13:25:39.896Z,5.07
2018-05-13T13:28:07.448Z,6.37
2018-05-13T13:30:35.081Z,5.93
2018-05-13T13:33:02.474Z,5.17
2018-05-13T13:35:30.050Z,5.90
2018-05-13T13:37:57.635Z,5.37
2018-05-13T13:40:25.176Z,6.60
2018-05-13T13:42:52.734Z,5.57
2018-05-13T13:45:20.261Z,5.20
2018-05-13T13:47:48.479Z,5.80
2018-05-13T13:50:16.061Z,5.83
2018-05-13T13:52:44.281Z,5.33
2018-05-13T13:55:12.506Z,6.60
2018-05-13T13:57:42.646Z,7.07
2018-05-13T14:00:10.136Z,7.30
2018-05-13T14:02:38.383Z,6.43
2018-05-13T14:05:05.840Z,5.53
2018-05-13T14:07:33.303Z,6.90
2018-05-13T14:10:00.868Z,6.37
2018-05-13T14:12:28.336Z,6.50
2018-05-13T14:14:55.802Z,6.70
2018-05-13T14:17:23.261Z,5.80
2018-05-13T14:19:50.703Z,6.10
2018-05-13T14:22:18.269Z,6.30
2018-05-13T14:24:45.829Z,6.67
2018-05-13T14:27:13.303Z,7.20
2018-05-13T14:29:40.859Z,6.07
2018-05-13T14:32:08.426Z,6.00
2018-05-13T14:34:36.001Z,6.27
2018-05-13T14:37:03.568Z,8.10
2018-05-13T14:39:31.049Z,6.90
2018-05-13T14:41:59.274Z,7.00
2018-05-13T14:44:26.732Z,8.13
2018-05-13T14:46:54.197Z,7.13
2018-05-13T14:49:21.672Z,7.40
2018-05-13T14:51:49.142Z,7.23
2018-05-13T14:54:16.700Z,7.33
2018-05-13T14:56:44.175Z,7.70
2018-05-13T14:59:11.644Z,8.57
2018-05-13T15:01:39.118Z,8.30
2018-05-13T15:04:07.754Z,7.87
2018-05-13T15:06:35.253Z,8.53
2018-05-13T15:09:02.717Z,9.33
2018-05-13T15:11:31.671Z,7.70
2018-05-13T15:13:59.155Z,7.60
2018-05-13T15:16:26.621Z,7.57
2018-05-13T15:18:54.100Z,7.77
2018-05-13T15:21:21.652Z,8.53
2018-05-13T15:23:49.244Z,7.93
2018-05-13T15:26:16.709Z,8.27
2018-05-13T15:28:44.944Z,7.33
2018-05-13T15:31:12.512Z,8.03
2018-05-13T15:33:40.085Z,7.30
2018-05-13T15:36:07.644Z,7.73
2018-05-13T15:38:35.122Z,7.33
2018-05-13T15:41:02.677Z,7.00
2018-05-13T15:43:30.120Z,6.53
2018-05-13T15:45:57.708Z,6.97
2018-05-13T15:48:25.167Z,7.20
2018-05-13T15:50:52.637Z,7.53
2018-05-13T15:53:20.197Z,7.30
2018-05-13T15:55:47.762Z,6.93
2018-05-13T15:58:15.221Z,7.17
2018-05-13T16:00:42.677Z,7.37
2018-05-13T16:03:10.149Z,6.77
2018-05-13T16:05:37.711Z,7.30
2018-05-13T16:08:05.178Z,7.43
2018-05-13T16:10:33.609Z,7.53
2018-05-13T16:13:01.112Z,7.13
2018-05-13T16:15:28.571Z,8.50
2018-05-13T16:17:56.035Z,7.70
2018-05-13T16:20:23.491Z,7.27
2018-05-13T16:22:51.058Z,7.83
2018-05-13T16:25:18.515Z,6.37
2018-05-13T16:27:46.097Z,8.03
2018-05-13T16:30:13.673Z,8.47
2018-05-13T16:32:41.211Z,7.30
2018-05-13T16:35:08.681Z,7.30
2018-05-13T16:37:36.232Z,6.97
2018-05-13T16:40:03.686Z,6.60
2018-05-13T16:42:31.161Z,7.83
2018-05-13T16:44:58.630Z,6.73
2018-05-13T16:47:26.180Z,7.27
2018-05-13T16:49:53.648Z,6.93
2018-05-13T16:52:21.118Z,6.80
2018-05-13T16:54:48.684Z,6.90
2018-05-13T16:57:16.227Z,7.17
2018-05-13T16:59:43.813Z,7.00
2018-05-13T17:02:11.368Z,7.63
2018-05-13T17:04:38.949Z,7.40
2018-05-13T17:07:06.405Z,6.37
2018-05-13T17:09:33.965Z,7.63
2018-05-13T17:12:01.426Z,7.20
2018-05-13T17:14:28.891Z,7.53
2018-05-13T17:16:56.810Z,6.73
2018-05-13T17:19:24.289Z,6.93
2018-05-13T17:21:51.781Z,7.03
2018-05-13T17:24:19.246Z,7.03
2018-05-13T17:26:47.529Z,7.43
2018-05-13T17:29:16.499Z,6.07
2018-05-13T17:31:43.965Z,7.40
2018-05-13T17:34:11.520Z,7.73
2018-05-13T17:36:39.705Z,6.80
2018-05-13T17:39:07.207Z,6.53
2018-05-13T17:41:34.693Z,6.70
2018-05-13T17:44:02.155Z,7.63
2018-05-13T17:46:29.686Z,6.87
2018-05-13T17:48:57.251Z,6.47
2018-05-13T17:51:24.715Z,6.90
2018-05-13T17:53:52.255Z,6.70
2018-05-13T17:56:19.834Z,6.90
2018-05-13T17:58:48.799Z,6.90
2018-05-13T18:01:16.264Z,7.07
2018-05-13T18:03:43.729Z,7.97
2018-05-13T18:06:11.191Z,6.77
2018-05-13T18:08:38.654Z,7.50
2018-05-13T18:11:06.230Z,7.60
2018-05-13T18:13:33.783Z,5.80
2018-05-13T18:16:01.239Z,6.47
2018-05-13T18:18:28.783Z,7.53
2018-05-13T18:20:56.165Z,7.17
2018-05-13T18:23:23.620Z,6.37
2018-05-13T18:25:51.080Z,5.70
2018-05-13T18:28:19.438Z,6.23
2018-05-13T18:30:46.903Z,6.17
2018-05-13T18:33:14.364Z,6.33
2018-05-13T18:35:41.820Z,6.23
2018-05-13T18:38:09.287Z,6.60
2018-05-13T18:40:36.794Z,5.80
2018-05-13T18:43:04.359Z,6.23
2018-05-13T18:45:31.932Z,7.03
2018-05-13T18:47:59.389Z,5.93
2018-05-13T18:50:26.951Z,6.23
2018-05-13T18:52:54.585Z,6.70
2018-05-13T18:55:22.087Z,7.00
2018-05-13T18:57:50.318Z,6.20
2018-05-13T19:00:17.791Z,7.20
2018-05-13T19:02:45.234Z,5.80
2018-05-13T19:05:12.701Z,6.57
2018-05-13T19:07:40.167Z,6.17
2018-05-13T19:10:07.623Z,6.80
2018-05-13T19:12:35.093Z,5.80
2018-05-13T19:15:02.550Z,6.27
2018-05-13T19:17:30.057Z,6.87
2018-05-13T19:19:57.504Z,5.33
2018-05-13T19:22:24.965Z,6.73
2018-05-13T19:24:52.490Z,5.33
2018-05-13T19:27:19.913Z,5.73
2018-05-13T19:29:47.368Z,5.50
2018-05-13T19:32:14.853Z,6.13
2018-05-13T19:34:43.772Z,6.20
2018-05-13T19:37:11.238Z,5.00
2018-05-13T19:39:38.711Z,6.00
2018-05-13T19:42:06.167Z,4.50
2018-05-13T19:44:33.618Z,4.57
2018-05-13T19:47:01.135Z,5.93
2018-05-13T19:49:28.592Z,5.30
2018-05-13T19:51:56.043Z,5.37
2018-05-13T19:54:23.491Z,5.40
2018-05-13T19:56:50.945Z,5.70
2018-05-13T19:59:18.394Z,4.40
2018-05-13T20:01:45.851Z,5.47
2018-05-13T20:04:13.304Z,5.87
2018-05-13T20:06:40.772Z,4.93
2018-05-13T20:09:08.218Z,5.33
2018-05-13T20:11:36.561Z,5.40
2018-05-13T20:14:04.009Z,5.77
2018-05-13T20:16:31.499Z,6.60
2018-05-13T20:18:59.052Z,5.13
2018-05-13T20:21:26.604Z,4.80
2018-05-13T20:23:54.082Z,5.63
2018-05-13T20:26:21.543Z,5.57
2018-05-13T20:28:49.104Z,4.57
2018-05-13T20:31:16.577Z,5.33
2018-05-13T20:33:44.045Z,5.30
2018-05-13T20:36:12.309Z,4.93
2018-05-13T20:38:41.285Z,5.43
2018-05-13T20:41:08.773Z,5.73
2018-05-13T20:43:36.223Z,6.93
2018-05-13T20:46:04.001Z,4.57
2018-05-13T20:48:31.465Z,5.47
2018-05-13T20:50:58.937Z,5.47
2018-05-13T20:53:26.385Z,5.67
2018-05-13T20:55:55.370Z,6.47
2018-05-13T20:58:22.833Z,5.17
2018-05-13T21:00:50.292Z,4.90
2018-05-13T21:03:17.746Z,5.23
2018-05-13T21:08:39.567Z,4.80
2018-05-13T21:11:07.041Z,5.40
2018-05-13T21:13:34.503Z,5.40
2018-05-13T21:16:01.985Z,7.23
2018-05-13T21:18:29.453Z,5.53
2018-05-13T21:20:56.925Z,5.27
2018-05-13T21:23:24.403Z,5.07
2018-05-13T21:25:52.649Z,6.00
2018-05-13T21:28:20.097Z,5.60
2018-05-13T21:30:47.627Z,6.83
2018-05-13T21:33:15.069Z,5.50
2018-05-13T21:35:43.296Z,6.57
2018-05-13T21:38:10.870Z,7.60
2018-05-13T21:40:38.343Z,8.20
2018-05-13T21:43:05.811Z,6.60
2018-05-13T21:45:33.370Z,5.53
2018-05-13T21:48:00.838Z,6.17
2018-05-13T21:50:28.294Z,6.10
2018-05-13T21:52:55.747Z,5.60
2018-05-13T21:55:23.200Z,6.87
2018-05-13T21:57:50.667Z,5.63
2018-05-13T22:00:18.124Z,6.20
2018-05-13T22:02:45.965Z,6.47
2018-05-13T22:05:13.429Z,6.60
2018-05-13T22:07:40.922Z,5.60
